Terminal Aerodrome Forecast
Issued by NWS

Home | Current Version | Previous Version | Text Only | Print | Product List | Glossary On
Versions: 1 2 3 4 5 6 7 8 9 10 11 12 13 14 15 16 17 18 19 20
000
FTUS41 KBGM 292322
TAFRME
TAF
KRME 292322Z 3000/3024 VRB03KT P6SM BKN250
     FM300700 VRB03KT P6SM OVC100
     FM301800 24005KT P6SM SCT050 BKN150=

USA.gov is the U.S. government's official web portal to all federal, state and local government web resources and services.